createdAt,value
2022-10-06T00:00:22.590Z,2.35
2022-10-06T00:00:55.626Z,1.70
2022-10-06T00:01:27.882Z,1.80
2022-10-06T00:01:59.695Z,2.28
2022-10-06T00:02:35.272Z,2.28
2022-10-06T00:03:07.177Z,1.65
2022-10-06T00:03:40.809Z,1.83
2022-10-06T00:04:12.893Z,1.75
2022-10-06T00:04:44.684Z,1.98
2022-10-06T00:05:17.581Z,1.80
2022-10-06T00:05:51.245Z,2.30
2022-10-06T00:06:23.053Z,2.17
2022-10-06T00:06:57.405Z,1.80
2022-10-06T00:07:29.190Z,1.70
2022-10-06T00:08:02.676Z,2.40
2022-10-06T00:08:37.159Z,1.90
2022-10-06T00:09:08.984Z,1.63
2022-10-06T00:09:40.992Z,2.38
2022-10-06T00:10:13.944Z,1.95
2022-10-06T00:10:45.740Z,2.15
2022-10-06T00:11:17.659Z,1.98
2022-10-06T00:11:50.398Z,2.05
2022-10-06T00:12:22.179Z,2.40
2022-10-06T00:12:53.948Z,1.85
2022-10-06T00:13:27.441Z,1.70
2022-10-06T00:13:59.194Z,2.05
2022-10-06T00:14:31.025Z,2.05
2022-10-06T00:15:03.768Z,1.70
2022-10-06T00:15:35.957Z,1.70
2022-10-06T00:16:10.577Z,2.03
2022-10-06T00:16:43.388Z,2.08
2022-10-06T00:17:15.235Z,3.00
2022-10-06T00:17:47.294Z,2.17
2022-10-06T00:18:20.189Z,2.28
2022-10-06T00:18:52.086Z,1.80
2022-10-06T00:19:24.557Z,1.80
2022-10-06T00:19:57.289Z,1.60
2022-10-06T00:20:29.934Z,1.92
2022-10-06T00:21:01.787Z,1.95
2022-10-06T00:21:34.640Z,1.70
2022-10-06T00:22:07.797Z,1.90
2022-10-06T00:22:42.052Z,2.03
2022-10-06T00:23:14.768Z,2.10
2022-10-06T00:23:46.550Z,2.10
2022-10-06T00:24:18.588Z,1.92
2022-10-06T00:24:51.374Z,2.45
2022-10-06T00:25:24.854Z,2.00
2022-10-06T00:25:57.074Z,2.25
2022-10-06T00:26:30.845Z,2.40
2022-10-06T00:27:02.732Z,2.10
2022-10-06T00:27:34.812Z,2.50
2022-10-06T00:28:06.754Z,2.33
2022-10-06T00:28:39.858Z,2.40
2022-10-06T00:29:13.354Z,1.95
2022-10-06T00:29:45.138Z,1.98
2022-10-06T00:30:19.386Z,1.83
2022-10-06T00:30:53.614Z,1.67
2022-10-06T00:31:25.879Z,1.70
2022-10-06T00:31:57.750Z,2.15
2022-10-06T00:32:30.509Z,1.95
2022-10-06T00:33:04.500Z,2.22
2022-10-06T00:33:37.194Z,1.80
2022-10-06T00:34:10.193Z,1.80
2022-10-06T00:34:44.017Z,1.90
2022-10-06T00:35:15.932Z,1.85
2022-10-06T00:35:49.111Z,1.90
2022-10-06T00:36:21.268Z,2.00
2022-10-06T00:36:53.077Z,2.20
2022-10-06T00:37:28.239Z,1.65
2022-10-06T00:38:00.545Z,1.60
2022-10-06T00:38:32.689Z,2.10
2022-10-06T00:39:05.569Z,1.90
2022-10-06T00:39:37.363Z,2.10
2022-10-06T00:40:10.329Z,1.70
2022-10-06T00:40:47.964Z,2.13
2022-10-06T00:41:19.799Z,1.60
2022-10-06T00:41:51.566Z,1.90
2022-10-06T00:42:26.150Z,1.80
2022-10-06T00:42:59.872Z,1.70
2022-10-06T00:43:44.802Z,2.25
2022-10-06T00:44:17.571Z,1.75
2022-10-06T00:44:49.466Z,2.10
2022-10-06T00:45:27.824Z,2.13
2022-10-06T00:45:59.731Z,1.85
2022-10-06T00:46:37.474Z,2.00
2022-10-06T00:47:09.301Z,2.03
2022-10-06T00:47:41.730Z,1.92
2022-10-06T00:48:16.693Z,1.70
2022-10-06T00:48:54.473Z,1.65
2022-10-06T00:49:30.727Z,1.75
2022-10-06T00:50:02.666Z,1.80
2022-10-06T00:50:36.611Z,1.60
2022-10-06T00:51:08.778Z,2.00
2022-10-06T00:51:44.242Z,1.70
2022-10-06T00:52:19.592Z,1.95
2022-10-06T00:52:52.717Z,1.90
2022-10-06T00:53:27.012Z,1.50
2022-10-06T00:54:00.056Z,1.85
2022-10-06T00:54:33.420Z,1.52
2022-10-06T00:55:09.280Z,1.27
2022-10-06T00:55:42.065Z,1.83
2022-10-06T00:56:14.255Z,1.70
2022-10-06T00:56:46.509Z,1.73
2022-10-06T00:57:20.646Z,1.65
2022-10-06T00:57:52.680Z,1.80
2022-10-06T00:58:25.075Z,1.67
2022-10-06T00:58:58.080Z,1.77
2022-10-06T00:59:29.917Z,1.83
2022-10-06T01:00:01.983Z,1.55
2022-10-06T01:00:36.187Z,1.70
2022-10-06T01:01:10.276Z,1.80
2022-10-06T01:01:47.823Z,1.85
2022-10-06T01:02:26.085Z,2.15
2022-10-06T01:03:04.127Z,1.80
2022-10-06T01:03:39.292Z,1.92
2022-10-06T01:04:15.269Z,1.70
2022-10-06T01:04:50.246Z,1.70
2022-10-06T01:05:27.379Z,1.85
2022-10-06T01:06:02.013Z,2.00
2022-10-06T01:06:46.143Z,1.50
2022-10-06T01:07:19.616Z,2.03
2022-10-06T01:07:53.038Z,1.58
2022-10-06T01:08:27.036Z,1.25
2022-10-06T01:08:59.089Z,1.50
2022-10-06T01:09:31.462Z,1.80
2022-10-06T01:10:04.219Z,1.60
2022-10-06T01:10:37.209Z,1.88
2022-10-06T01:11:13.119Z,1.38
2022-10-06T01:11:48.306Z,1.85
2022-10-06T01:12:21.853Z,1.35
2022-10-06T01:12:54.074Z,1.58
2022-10-06T01:13:28.025Z,1.40
2022-10-06T01:14:00.853Z,1.85
2022-10-06T01:14:33.787Z,1.70
2022-10-06T01:15:07.947Z,1.63
2022-10-06T01:15:45.490Z,1.75
2022-10-06T01:16:19.732Z,1.75
2022-10-06T01:16:55.981Z,1.70
2022-10-06T01:17:33.981Z,1.40
2022-10-06T01:18:09.577Z,1.33
2022-10-06T01:18:42.750Z,1.75
2022-10-06T01:19:22.615Z,1.55
2022-10-06T01:19:57.426Z,1.67
2022-10-06T01:20:29.954Z,1.95
2022-10-06T01:21:06.061Z,1.67
2022-10-06T01:21:43.892Z,1.58
2022-10-06T01:22:17.704Z,1.90
2022-10-06T01:22:55.454Z,1.60
2022-10-06T01:23:28.525Z,1.40
2022-10-06T01:24:01.929Z,1.88
2022-10-06T01:24:34.163Z,1.60
2022-10-06T01:25:08.750Z,1.50
2022-10-06T01:25:40.829Z,1.75
2022-10-06T01:26:15.864Z,1.73
2022-10-06T01:26:50.367Z,1.80
2022-10-06T01:27:25.429Z,1.50
2022-10-06T01:27:58.603Z,1.70
2022-10-06T01:28:30.937Z,1.55
2022-10-06T01:29:04.246Z,1.83
2022-10-06T01:29:36.740Z,1.85
2022-10-06T01:30:11.162Z,1.48
2022-10-06T01:30:52.440Z,2.30
2022-10-06T01:31:24.761Z,1.75
2022-10-06T01:31:56.673Z,1.50
2022-10-06T01:32:35.104Z,1.30
2022-10-06T01:33:07.202Z,2.13
2022-10-06T01:33:39.025Z,1.50
2022-10-06T01:34:11.997Z,1.60
2022-10-06T01:34:43.836Z,1.50
2022-10-06T01:35:15.805Z,1.60
2022-10-06T01:35:51.074Z,1.75
2022-10-06T01:36:23.851Z,1.38
2022-10-06T01:36:55.680Z,1.60
2022-10-06T01:37:27.547Z,1.75
2022-10-06T01:38:01.654Z,1.58
2022-10-06T01:38:33.626Z,1.67
2022-10-06T01:39:05.511Z,1.80
2022-10-06T01:39:38.260Z,1.95
2022-10-06T01:40:10.547Z,1.70
2022-10-06T01:40:42.310Z,1.42
2022-10-06T01:41:15.074Z,1.50
2022-10-06T01:41:47.773Z,1.42
2022-10-06T01:42:19.880Z,1.40
2022-10-06T01:42:51.629Z,1.92
2022-10-06T01:43:24.434Z,1.75
2022-10-06T01:43:56.228Z,1.75
2022-10-06T01:44:28.022Z,1.67
2022-10-06T01:44:59.971Z,1.30
2022-10-06T01:45:32.789Z,2.08
2022-10-06T01:46:04.727Z,1.40
2022-10-06T01:46:36.712Z,1.38
2022-10-06T01:47:09.906Z,1.40
2022-10-06T01:47:41.699Z,2.10
2022-10-06T01:48:13.526Z,1.50
2022-10-06T01:48:46.288Z,1.60
2022-10-06T01:49:18.170Z,1.20
2022-10-06T01:49:49.920Z,2.15
2022-10-06T01:50:22.715Z,1.30
2022-10-06T01:50:54.819Z,1.65
2022-10-06T01:51:26.647Z,1.70
2022-10-06T01:51:59.547Z,1.63
2022-10-06T01:52:31.354Z,1.70
2022-10-06T01:53:04.509Z,1.73
2022-10-06T01:53:37.370Z,1.83
2022-10-06T01:54:09.129Z,1.95
2022-10-06T01:54:40.905Z,1.50
2022-10-06T01:55:14.497Z,1.48
2022-10-06T01:55:46.445Z,1.77
2022-10-06T01:56:18.775Z,1.60
2022-10-06T01:56:51.627Z,1.52
2022-10-06T01:57:23.521Z,1.55
2022-10-06T01:57:55.370Z,1.45
2022-10-06T01:58:28.513Z,1.60
2022-10-06T01:59:00.541Z,1.45
2022-10-06T01:59:32.682Z,1.73
2022-10-06T02:00:06.804Z,1.58
2022-10-06T02:00:38.828Z,2.03
2022-10-06T02:01:10.784Z,1.80
2022-10-06T02:01:43.674Z,1.50
2022-10-06T02:02:15.514Z,1.58
2022-10-06T02:02:47.437Z,1.60
2022-10-06T02:03:20.252Z,1.58
2022-10-06T02:03:52.050Z,1.70
2022-10-06T02:04:23.881Z,1.73
2022-10-06T02:04:56.645Z,1.88
2022-10-06T02:05:28.515Z,1.52
2022-10-06T02:06:00.327Z,1.73
2022-10-06T02:06:35.991Z,1.67
2022-10-06T02:07:07.856Z,1.70
2022-10-06T02:07:39.790Z,1.58
2022-10-06T02:08:15.999Z,1.55
2022-10-06T02:08:48.773Z,1.70
2022-10-06T02:09:20.728Z,1.30
2022-10-06T02:09:52.524Z,2.05
2022-10-06T02:10:25.352Z,1.55
2022-10-06T02:10:57.449Z,1.85
2022-10-06T02:11:29.578Z,1.80
2022-10-06T02:12:02.377Z,1.38
2022-10-06T02:12:35.046Z,1.38
2022-10-06T02:13:06.907Z,1.92
2022-10-06T02:13:39.341Z,1.52
2022-10-06T02:14:13.118Z,1.75
2022-10-06T02:14:44.891Z,1.73
2022-10-06T02:15:16.885Z,1.63
2022-10-06T02:15:49.728Z,1.73
2022-10-06T02:16:21.996Z,1.65
2022-10-06T02:16:53.799Z,1.67
2022-10-06T02:17:25.676Z,1.30
2022-10-06T02:17:58.431Z,2.25
2022-10-06T02:18:30.600Z,1.80
2022-10-06T02:19:02.669Z,1.42
2022-10-06T02:19:35.422Z,1.40
2022-10-06T02:20:07.727Z,1.85
2022-10-06T02:20:40.287Z,2.17
2022-10-06T02:21:17.813Z,1.80
2022-10-06T02:21:49.604Z,2.08
2022-10-06T02:22:21.405Z,2.13
2022-10-06T02:22:54.231Z,1.58
2022-10-06T02:23:27.423Z,2.08
2022-10-06T02:23:59.242Z,1.95
2022-10-06T02:24:32.012Z,1.92
2022-10-06T02:25:04.362Z,1.80
2022-10-06T02:25:36.197Z,1.95
2022-10-06T02:26:09.126Z,1.48
2022-10-06T02:26:40.944Z,1.50
2022-10-06T02:27:12.808Z,2.13
2022-10-06T02:27:45.605Z,1.40
2022-10-06T02:28:17.478Z,1.67
2022-10-06T02:28:49.892Z,1.95
2022-10-06T02:29:22.042Z,1.50
2022-10-06T02:29:55.818Z,2.00
2022-10-06T02:30:27.683Z,1.40
2022-10-06T02:31:03.963Z,1.70
2022-10-06T02:31:36.766Z,2.08
2022-10-06T02:32:08.577Z,1.40
2022-10-06T02:32:42.453Z,1.80
2022-10-06T02:33:15.206Z,2.00
2022-10-06T02:33:48.037Z,1.73
2022-10-06T02:34:19.822Z,2.10
2022-10-06T02:34:52.605Z,1.90
2022-10-06T02:35:24.782Z,1.80
2022-10-06T02:35:56.782Z,1.70
2022-10-06T02:36:29.626Z,1.38
2022-10-06T02:37:01.393Z,1.92
2022-10-06T02:37:33.820Z,2.00
2022-10-06T02:38:06.652Z,1.85
2022-10-06T02:38:39.950Z,1.60
2022-10-06T02:39:11.808Z,1.70
2022-10-06T02:39:44.577Z,1.65
2022-10-06T02:40:16.688Z,1.50
2022-10-06T02:40:48.480Z,1.67
2022-10-06T02:41:21.365Z,1.83
2022-10-06T02:41:53.144Z,1.83
2022-10-06T02:42:24.963Z,1.55
2022-10-06T02:42:57.720Z,1.33
2022-10-06T02:43:31.558Z,2.22
2022-10-06T02:44:03.388Z,1.80
2022-10-06T02:44:36.174Z,1.63
2022-10-06T02:45:08.765Z,1.80
2022-10-06T02:45:41.729Z,2.10
2022-10-06T02:46:14.251Z,1.85
2022-10-06T02:46:47.113Z,1.80
2022-10-06T02:47:22.150Z,2.00
2022-10-06T02:47:54.405Z,1.15
2022-10-06T02:48:28.428Z,1.70
2022-10-06T02:49:00.475Z,1.80
2022-10-06T02:49:32.311Z,2.00
2022-10-06T02:50:08.088Z,1.40
2022-10-06T02:50:40.102Z,2.10
2022-10-06T02:51:13.383Z,1.95
2022-10-06T02:51:46.092Z,1.50
2022-10-06T02:52:17.913Z,1.70
2022-10-06T02:52:49.708Z,1.70
2022-10-06T02:53:21.578Z,2.67
2022-10-06T02:53:55.645Z,2.08
2022-10-06T02:54:27.411Z,1.98
2022-10-06T02:54:59.249Z,2.03
2022-10-06T02:55:31.135Z,1.80
2022-10-06T02:56:06.216Z,1.85
2022-10-06T02:56:38.177Z,1.88
2022-10-06T02:57:09.988Z,1.48
2022-10-06T02:57:42.708Z,1.40
2022-10-06T02:58:14.513Z,1.85
2022-10-06T02:58:47.749Z,2.00
2022-10-06T02:59:20.749Z,2.05
2022-10-06T02:59:52.569Z,2.60
2022-10-06T03:00:24.457Z,2.10
2022-10-06T03:01:01.467Z,1.40
2022-10-06T03:01:33.371Z,2.28
2022-10-06T03:02:05.284Z,1.85
2022-10-06T03:02:38.200Z,1.60
2022-10-06T03:03:10.099Z,1.60
2022-10-06T03:03:42.292Z,1.50
2022-10-06T03:04:14.120Z,1.90
2022-10-06T03:04:46.882Z,2.00
2022-10-06T03:05:18.702Z,2.20
2022-10-06T03:05:50.491Z,1.92
2022-10-06T03:06:24.901Z,1.70
2022-10-06T03:06:56.810Z,2.28
2022-10-06T03:07:28.783Z,1.75
2022-10-06T03:08:00.561Z,1.80
2022-10-06T03:08:33.583Z,1.88
2022-10-06T03:09:08.775Z,1.85
2022-10-06T03:09:40.549Z,1.65
2022-10-06T03:10:13.308Z,1.90
2022-10-06T03:10:45.104Z,1.92
2022-10-06T03:11:19.205Z,1.70
2022-10-06T03:11:52.256Z,2.10
2022-10-06T03:12:24.100Z,1.83
2022-10-06T03:12:55.905Z,1.63
2022-10-06T03:13:29.669Z,1.73
2022-10-06T03:14:02.132Z,1.92
2022-10-06T03:14:34.865Z,1.58
2022-10-06T03:15:08.296Z,1.73
2022-10-06T03:15:40.081Z,1.60
2022-10-06T03:16:17.959Z,1.88
2022-10-06T03:16:51.447Z,1.83
2022-10-06T03:17:24.303Z,1.58
2022-10-06T03:17:56.102Z,1.80
2022-10-06T03:18:28.246Z,1.92
2022-10-06T03:19:00.930Z,1.60
2022-10-06T03:19:33.736Z,1.85
2022-10-06T03:20:06.736Z,1.45
2022-10-06T03:20:38.508Z,1.75
2022-10-06T03:21:11.357Z,1.30
2022-10-06T03:21:44.174Z,1.90
2022-10-06T03:22:15.963Z,1.60
2022-10-06T03:22:48.699Z,1.35
2022-10-06T03:23:20.605Z,1.80
2022-10-06T03:23:53.695Z,1.70
2022-10-06T03:24:27.761Z,1.98
2022-10-06T03:24:59.537Z,1.77
2022-10-06T03:25:31.369Z,1.92
2022-10-06T03:26:03.263Z,1.80
2022-10-06T03:26:37.681Z,1.23
2022-10-06T03:27:09.457Z,1.70
2022-10-06T03:27:41.233Z,1.70
2022-10-06T03:28:13.051Z,1.88
2022-10-06T03:28:46.265Z,1.67
2022-10-06T03:29:18.177Z,1.83
2022-10-06T03:29:49.987Z,1.98
2022-10-06T03:30:22.770Z,1.63
2022-10-06T03:30:54.800Z,1.95
2022-10-06T03:31:27.117Z,1.60
2022-10-06T03:31:59.933Z,1.88
2022-10-06T03:32:31.717Z,2.25
2022-10-06T03:33:03.618Z,1.50
2022-10-06T03:33:35.547Z,1.40
2022-10-06T03:34:08.389Z,2.03
2022-10-06T03:34:40.189Z,1.70
2022-10-06T03:35:12.181Z,1.75
2022-10-06T03:35:45.225Z,1.77
2022-10-06T03:36:20.816Z,1.60
2022-10-06T03:36:52.755Z,1.90
2022-10-06T03:37:25.563Z,1.65
2022-10-06T03:37:59.249Z,1.90
2022-10-06T03:38:32.054Z,1.83
2022-10-06T03:39:05.780Z,1.40
2022-10-06T03:39:40.084Z,1.73
2022-10-06T03:40:12.310Z,1.92
2022-10-06T03:40:44.102Z,1.40
2022-10-06T03:41:18.478Z,1.63
2022-10-06T03:41:50.292Z,1.77
2022-10-06T03:42:22.058Z,1.25
2022-10-06T03:42:54.821Z,2.03
2022-10-06T03:43:26.843Z,1.63
2022-10-06T03:44:00.132Z,1.48
2022-10-06T03:44:34.860Z,2.85
2022-10-06T03:45:07.616Z,3.85
2022-10-06T03:45:39.442Z,1.85
2022-10-06T03:46:14.107Z,2.60
2022-10-06T03:46:45.961Z,2.38
2022-10-06T03:47:19.094Z,2.00
2022-10-06T03:47:50.890Z,2.53
2022-10-06T03:48:22.746Z,2.25
2022-10-06T03:48:57.054Z,2.10
2022-10-06T03:49:29.876Z,1.92
2022-10-06T03:50:01.668Z,1.90
2022-10-06T03:50:33.592Z,1.70
2022-10-06T03:51:08.640Z,2.10
2022-10-06T03:51:41.631Z,1.50
2022-10-06T03:52:13.387Z,1.20
2022-10-06T03:52:51.128Z,1.52
2022-10-06T03:53:25.626Z,1.27
2022-10-06T03:53:58.617Z,1.50
2022-10-06T03:54:31.347Z,1.42
2022-10-06T03:55:05.138Z,1.60
2022-10-06T03:55:36.892Z,1.20
2022-10-06T03:56:11.951Z,1.63
2022-10-06T03:56:44.670Z,1.55
2022-10-06T03:57:16.444Z,1.55
2022-10-06T03:57:48.220Z,1.67
2022-10-06T03:58:20.985Z,1.65
2022-10-06T03:58:54.751Z,1.98
2022-10-06T03:59:31.200Z,1.60
2022-10-06T04:00:03.399Z,1.50
2022-10-06T04:00:35.656Z,1.60
2022-10-06T04:01:10.232Z,1.73
2022-10-06T04:01:43.887Z,1.52
2022-10-06T04:02:16.734Z,2.30
2022-10-06T04:02:50.128Z,2.80
2022-10-06T04:03:22.286Z,2.72
2022-10-06T04:03:55.146Z,2.30
2022-10-06T04:04:28.774Z,1.98
2022-10-06T04:05:00.605Z,1.75
2022-10-06T04:05:32.366Z,1.42
2022-10-06T04:06:07.100Z,1.73
2022-10-06T04:06:41.373Z,1.92
2022-10-06T04:07:13.145Z,1.55
2022-10-06T04:07:45.868Z,1.52
2022-10-06T04:08:17.641Z,1.63
2022-10-06T04:08:51.772Z,1.70
2022-10-06T04:09:24.578Z,1.58
2022-10-06T04:09:56.376Z,1.75
2022-10-06T04:10:29.510Z,12.15
2022-10-06T04:11:09.004Z,15.75
2022-10-06T04:11:42.010Z,13.40
2022-10-06T04:12:13.798Z,12.88
2022-10-06T04:12:45.617Z,6.07
2022-10-06T04:13:18.176Z,5.57
2022-10-06T04:13:53.952Z,7.53
2022-10-06T04:14:25.920Z,10.18
2022-10-06T04:15:00.065Z,5.90
2022-10-06T04:15:33.101Z,3.58
2022-10-06T04:16:16.023Z,6.75
2022-10-06T04:16:49.245Z,6.03
2022-10-06T04:17:21.968Z,7.85
2022-10-06T04:17:54.907Z,5.63
2022-10-06T04:18:27.348Z,4.75
2022-10-06T04:19:04.121Z,4.22
2022-10-06T04:19:35.949Z,3.35
2022-10-06T04:20:08.097Z,4.18
2022-10-06T04:20:41.087Z,2.20
2022-10-06T04:21:13.719Z,2.95
2022-10-06T04:21:48.045Z,2.40
2022-10-06T04:22:19.793Z,1.83
2022-10-06T04:22:51.713Z,1.80
2022-10-06T04:23:24.449Z,1.70
2022-10-06T04:23:58.104Z,1.70
2022-10-06T04:24:30.833Z,1.75
2022-10-06T04:25:02.596Z,1.80
2022-10-06T04:25:35.696Z,1.52
2022-10-06T04:26:10.954Z,1.63
2022-10-06T04:26:45.314Z,1.73
2022-10-06T04:27:29.220Z,1.63
2022-10-06T04:28:02.007Z,1.70
2022-10-06T04:28:34.627Z,1.75
2022-10-06T04:29:08.098Z,1.80
2022-10-06T04:29:39.851Z,1.45
2022-10-06T04:30:12.473Z,1.65
2022-10-06T04:30:45.209Z,2.20
2022-10-06T04:31:19.116Z,12.40
2022-10-06T04:31:51.020Z,15.52
2022-10-06T04:32:24.310Z,5.65
2022-10-06T04:32:56.257Z,4.60
2022-10-06T04:33:28.818Z,9.38
2022-10-06T04:34:02.369Z,9.80
2022-10-06T04:34:34.142Z,4.90
2022-10-06T04:35:07.882Z,3.25
2022-10-06T04:35:40.625Z,3.30
2022-10-06T04:36:14.585Z,2.28
2022-10-06T04:36:46.586Z,1.98
2022-10-06T04:37:19.388Z,1.85
2022-10-06T04:37:51.818Z,1.50
2022-10-06T04:38:23.619Z,1.77
2022-10-06T04:38:59.116Z,1.60
2022-10-06T04:39:30.940Z,1.33
2022-10-06T04:40:02.724Z,1.52
2022-10-06T04:40:36.785Z,1.50
2022-10-06T04:41:12.071Z,2.08
2022-10-06T04:41:47.091Z,16.30
2022-10-06T04:42:19.958Z,18.92
2022-10-06T04:42:51.724Z,14.38
2022-10-06T04:43:23.789Z,11.70
2022-10-06T04:43:56.040Z,7.95
2022-10-06T04:44:28.794Z,7.18
2022-10-06T04:45:00.564Z,6.55
2022-10-06T04:45:32.354Z,3.67
2022-10-06T04:46:23.855Z,4.03
2022-10-06T04:46:57.897Z,3.80
2022-10-06T04:47:30.677Z,2.65
2022-10-06T04:48:02.460Z,2.50
2022-10-06T04:48:34.294Z,2.45
2022-10-06T04:49:07.015Z,2.20
2022-10-06T04:49:38.813Z,2.55
2022-10-06T04:50:10.630Z,2.20
2022-10-06T04:50:43.429Z,1.90
2022-10-06T04:51:16.440Z,2.03
2022-10-06T04:51:48.925Z,2.15
2022-10-06T04:52:20.716Z,1.80
2022-10-06T04:52:54.482Z,2.05
2022-10-06T04:53:27.111Z,1.70
2022-10-06T04:53:58.918Z,1.65
2022-10-06T04:54:33.837Z,2.10
2022-10-06T04:55:06.618Z,1.75
2022-10-06T04:55:39.712Z,1.85
2022-10-06T04:56:14.492Z,1.40
2022-10-06T04:56:46.446Z,1.85
2022-10-06T04:57:18.296Z,2.05
2022-10-06T04:57:51.048Z,1.85
2022-10-06T04:58:22.954Z,2.38
2022-10-06T04:58:56.894Z,2.42
2022-10-06T04:59:43.609Z,10.20
2022-10-06T05:00:25.240Z,18.67
2022-10-06T05:00:57.113Z,22.13
2022-10-06T05:01:31.666Z,14.13
2022-10-06T05:02:03.638Z,12.02
2022-10-06T05:02:36.242Z,10.50
2022-10-06T05:03:09.032Z,5.40
2022-10-06T05:03:41.360Z,4.70
2022-10-06T05:04:14.148Z,4.60
2022-10-06T05:04:46.192Z,4.18
2022-10-06T05:05:18.014Z,3.35
2022-10-06T05:05:50.781Z,2.75
2022-10-06T05:06:24.996Z,2.65
2022-10-06T05:06:56.768Z,2.10
2022-10-06T05:07:29.539Z,2.42
2022-10-06T05:08:01.980Z,2.13
2022-10-06T05:08:34.514Z,1.83
2022-10-06T05:09:09.090Z,1.60
2022-10-06T05:09:40.906Z,1.95
2022-10-06T05:10:12.699Z,1.90
2022-10-06T05:10:46.821Z,1.63
2022-10-06T05:11:23.677Z,2.03
2022-10-06T05:11:57.905Z,2.47
2022-10-06T05:12:31.207Z,2.10
2022-10-06T05:13:03.719Z,1.83
2022-10-06T05:13:37.070Z,1.92
2022-10-06T05:14:09.880Z,1.60
2022-10-06T05:14:41.683Z,1.67
2022-10-06T05:15:14.902Z,1.70
2022-10-06T05:15:56.685Z,1.40
2022-10-06T05:16:29.803Z,1.95
2022-10-06T05:17:02.636Z,1.35
2022-10-06T05:17:34.408Z,2.00
2022-10-06T05:18:06.251Z,1.80
2022-10-06T05:18:39.158Z,2.05
2022-10-06T05:19:11.518Z,2.13
2022-10-06T05:19:43.325Z,1.92
2022-10-06T05:20:16.198Z,2.17
2022-10-06T05:20:55.597Z,1.92
2022-10-06T05:21:29.201Z,2.15
2022-10-06T05:22:01.914Z,1.70
2022-10-06T05:22:33.697Z,1.50
2022-10-06T05:23:07.211Z,1.90
2022-10-06T05:23:41.309Z,2.35
2022-10-06T05:24:13.114Z,1.83
2022-10-06T05:24:44.885Z,1.75
2022-10-06T05:25:18.135Z,1.40
2022-10-06T05:25:55.516Z,2.25
2022-10-06T05:26:30.859Z,2.13
2022-10-06T05:27:03.844Z,1.65
2022-10-06T05:27:35.617Z,1.80
2022-10-06T05:28:08.398Z,2.00
2022-10-06T05:28:40.434Z,1.70
2022-10-06T05:29:12.284Z,2.17
2022-10-06T05:29:44.996Z,2.15
2022-10-06T05:30:17.021Z,2.13
2022-10-06T05:30:56.743Z,2.30
2022-10-06T05:31:31.550Z,4.13
2022-10-06T05:32:03.519Z,6.65
2022-10-06T05:32:36.294Z,6.25
2022-10-06T05:33:10.877Z,25.10
2022-10-06T05:33:43.002Z,23.65
2022-10-06T05:34:14.769Z,12.68
2022-10-06T05:34:47.509Z,7.82
2022-10-06T05:35:19.397Z,6.32
2022-10-06T05:35:52.285Z,6.25
2022-10-06T05:36:26.796Z,5.47
2022-10-06T05:36:58.585Z,3.60
2022-10-06T05:37:30.392Z,4.03
2022-10-06T05:38:03.154Z,3.40
2022-10-06T05:38:34.959Z,3.28
2022-10-06T05:39:07.139Z,2.92
2022-10-06T05:39:39.866Z,2.15
2022-10-06T05:40:11.657Z,2.00
2022-10-06T05:40:43.425Z,2.50
2022-10-06T05:41:19.177Z,2.47
2022-10-06T05:41:51.510Z,1.95
2022-10-06T05:42:26.256Z,2.25
2022-10-06T05:43:02.160Z,2.35
2022-10-06T05:43:34.645Z,2.00
2022-10-06T05:44:06.809Z,2.40
2022-10-06T05:44:39.567Z,3.35
2022-10-06T05:45:11.500Z,2.58
2022-10-06T05:45:53.151Z,2.70
2022-10-06T05:46:28.583Z,3.35
2022-10-06T05:47:00.515Z,2.72
2022-10-06T05:47:32.265Z,3.22
2022-10-06T05:48:04.977Z,2.38
2022-10-06T05:48:36.765Z,3.35
2022-10-06T05:49:10.112Z,3.97
2022-10-06T05:49:42.834Z,2.58
2022-10-06T05:50:15.027Z,2.30
2022-10-06T05:50:46.821Z,2.38
2022-10-06T05:51:21.113Z,3.75
2022-10-06T05:51:53.144Z,3.15
2022-10-06T05:52:24.915Z,2.90
2022-10-06T05:52:57.662Z,3.05
2022-10-06T05:53:30.764Z,4.00
2022-10-06T05:54:04.250Z,3.83
2022-10-06T05:54:36.060Z,4.45
2022-10-06T05:55:08.790Z,4.50
2022-10-06T05:55:41.520Z,4.35
2022-10-06T05:56:16.553Z,5.63
2022-10-06T05:56:48.360Z,4.40
2022-10-06T05:57:21.113Z,3.53
2022-10-06T05:57:54.833Z,3.58
2022-10-06T05:58:28.381Z,2.78
2022-10-06T05:59:02.079Z,2.65
2022-10-06T05:59:34.190Z,2.70
2022-10-06T06:00:08.397Z,2.20
2022-10-06T06:00:40.176Z,3.05
2022-10-06T06:01:15.361Z,3.47
2022-10-06T06:01:48.210Z,2.70
2022-10-06T06:02:20.106Z,2.83
2022-10-06T06:02:52.071Z,2.55
2022-10-06T06:03:24.922Z,2.13
2022-10-06T06:04:00.086Z,2.35
2022-10-06T06:04:32.792Z,3.03
2022-10-06T06:05:05.202Z,3.00
2022-10-06T06:05:41.070Z,2.78
2022-10-06T06:06:18.480Z,3.90
2022-10-06T06:06:50.431Z,4.18
2022-10-06T06:07:23.204Z,3.80
2022-10-06T06:07:54.985Z,3.75
2022-10-06T06:08:27.251Z,2.65
2022-10-06T06:09:02.576Z,2.75
2022-10-06T06:09:34.323Z,3.00
2022-10-06T06:10:07.773Z,7.28
2022-10-06T06:10:39.614Z,5.35
2022-10-06T06:11:11.717Z,4.57
2022-10-06T06:11:47.816Z,4.60
2022-10-06T06:12:19.630Z,4.90
2022-10-06T06:12:51.443Z,3.85
2022-10-06T06:13:24.696Z,3.45
2022-10-06T06:13:57.344Z,3.42
2022-10-06T06:14:44.037Z,2.97
2022-10-06T06:15:34.731Z,2.42
2022-10-06T06:16:13.345Z,2.58
2022-10-06T06:16:46.317Z,2.20
2022-10-06T06:17:18.131Z,3.35
2022-10-06T06:17:50.004Z,3.10
2022-10-06T06:18:22.737Z,2.55
2022-10-06T06:18:54.820Z,3.08
2022-10-06T06:19:29.217Z,2.95
2022-10-06T06:20:01.080Z,2.75
2022-10-06T06:20:32.876Z,2.55
2022-10-06T06:21:07.857Z,2.45
2022-10-06T06:21:40.295Z,2.45
2022-10-06T06:22:13.055Z,2.67
2022-10-06T06:22:44.820Z,2.90
2022-10-06T06:23:16.644Z,3.08
2022-10-06T06:23:50.228Z,2.45
2022-10-06T06:24:22.072Z,2.88
2022-10-06T06:24:53.904Z,1.58
2022-10-06T06:25:26.726Z,2.28
2022-10-06T06:26:02.430Z,2.80
2022-10-06T06:26:37.890Z,3.42
2022-10-06T06:27:11.095Z,2.47
2022-10-06T06:27:42.997Z,2.13
2022-10-06T06:28:15.821Z,2.60
2022-10-06T06:28:48.471Z,2.35
2022-10-06T06:29:20.383Z,2.15
2022-10-06T06:29:53.156Z,2.15
2022-10-06T06:30:25.320Z,3.45
2022-10-06T06:31:04.744Z,2.65
2022-10-06T06:31:38.959Z,3.20
2022-10-06T06:32:10.757Z,4.00
2022-10-06T06:32:42.566Z,2.67
2022-10-06T06:33:15.321Z,6.22
2022-10-06T06:33:48.326Z,5.15
2022-10-06T06:34:21.042Z,4.32
2022-10-06T06:34:52.801Z,3.45
2022-10-06T06:35:24.669Z,4.40
2022-10-06T06:36:01.081Z,3.90
2022-10-06T06:36:36.746Z,5.05
2022-10-06T06:37:15.103Z,3.60
2022-10-06T06:37:47.135Z,3.90
2022-10-06T06:38:18.957Z,2.90
2022-10-06T06:38:53.272Z,2.55
2022-10-06T06:39:25.488Z,2.53
2022-10-06T06:39:57.432Z,2.97
2022-10-06T06:40:30.177Z,3.00
2022-10-06T06:41:01.945Z,2.80
2022-10-06T06:41:37.638Z,2.47
2022-10-06T06:42:11.745Z,2.75
2022-10-06T06:42:43.509Z,2.15
2022-10-06T06:43:15.279Z,1.90
2022-10-06T06:43:48.930Z,3.25
2022-10-06T06:44:20.911Z,5.55
2022-10-06T06:44:52.668Z,6.97
2022-10-06T06:45:25.519Z,6.10
2022-10-06T06:46:02.401Z,4.10
2022-10-06T06:47:12.705Z,4.65
2022-10-06T06:47:47.801Z,2.55
2022-10-06T06:48:19.686Z,3.45
2022-10-06T06:48:52.955Z,2.10
2022-10-06T06:49:25.254Z,3.85
2022-10-06T06:49:58.838Z,2.83
2022-10-06T06:50:31.632Z,2.80
2022-10-06T06:51:04.153Z,2.95
2022-10-06T06:51:37.839Z,3.00
2022-10-06T06:52:10.687Z,2.70
2022-10-06T06:52:43.770Z,3.35
2022-10-06T06:53:16.428Z,2.85
2022-10-06T06:53:49.317Z,2.53
2022-10-06T06:54:21.171Z,3.10
2022-10-06T06:54:52.929Z,2.70
2022-10-06T06:55:25.652Z,2.80
2022-10-06T06:55:57.955Z,2.70
2022-10-06T06:56:34.826Z,3.28
2022-10-06T06:57:07.967Z,2.55
2022-10-06T06:57:42.683Z,2.80
2022-10-06T06:58:14.494Z,2.58
2022-10-06T06:58:48.894Z,2.53
2022-10-06T06:59:20.686Z,2.95
2022-10-06T06:59:52.446Z,3.17
2022-10-06T07:00:25.316Z,2.20
2022-10-06T07:01:05.080Z,2.60
2022-10-06T07:01:38.712Z,2.28
2022-10-06T07:02:11.788Z,1.95
2022-10-06T07:02:43.634Z,2.13
2022-10-06T07:03:32.818Z,2.10
2022-10-06T07:04:11.594Z,2.33
2022-10-06T07:04:44.520Z,2.70
2022-10-06T07:05:16.581Z,2.00
2022-10-06T07:05:48.425Z,2.00
2022-10-06T07:06:27.080Z,3.38
2022-10-06T07:06:59.739Z,2.60
2022-10-06T07:07:31.515Z,2.42
2022-10-06T07:08:04.310Z,2.45
2022-10-06T07:08:37.782Z,2.50
2022-10-06T07:09:11.164Z,2.30
2022-10-06T07:09:42.918Z,2.53
2022-10-06T07:10:14.826Z,2.72
2022-10-06T07:10:48.428Z,2.58
2022-10-06T07:11:23.028Z,3.50
2022-10-06T07:11:55.030Z,3.05
2022-10-06T07:12:26.842Z,3.05
2022-10-06T07:13:00.911Z,2.85
2022-10-06T07:13:32.668Z,2.75
2022-10-06T07:14:07.943Z,2.35
2022-10-06T07:15:00.129Z,3.10
2022-10-06T07:15:50.558Z,3.22
2022-10-06T07:16:41.413Z,4.13
2022-10-06T07:17:31.843Z,2.92
2022-10-06T07:18:22.229Z,3.35
2022-10-06T07:19:12.826Z,2.22
2022-10-06T07:20:03.178Z,2.10
2022-10-06T07:20:56.209Z,2.00
2022-10-06T07:21:43.724Z,2.08
2022-10-06T07:22:36.176Z,2.10
2022-10-06T07:23:30.109Z,2.53
2022-10-06T07:24:20.697Z,2.20
2022-10-06T07:25:11.704Z,2.60
2022-10-06T07:25:43.602Z,2.60
2022-10-06T07:26:16.313Z,2.28